Time,TemperatureF,DewpointF,PressureIn,WindDirection,WindDirectionDegrees,WindSpeedMPH,WindSpeedGustMPH,Humidity,HourlyPrecipIn,Conditions,Clouds,dailyrainin,SoftwareType,DateUTC
2013-05-23 00:01:00,67.0,65.5,29.87,WSW,245,0.0,2.0,95,0.00,,SKC,0.10,VWS V13.00,2013-05-23 05:01:00,
2013-05-23 00:06:00,66.9,65.4,29.87,WSW,245,1.0,1.0,95,0.00,,SKC,0.00,VWS V13.00,2013-05-23 05:06:00,
2013-05-23 00:11:00,66.8,65.3,29.87,WSW,245,0.0,1.0,95,0.00,,SKC,0.00,VWS V13.00,2013-05-23 05:11:00,
2013-05-23 00:16:00,66.8,65.3,29.87,WSW,245,0.0,1.0,95,0.00,,SKC,0.00,VWS V13.00,2013-05-23 05:16:00,
2013-05-23 00:21:00,66.7,65.2,29.87,WSW,245,0.0,2.0,95,0.00,,SKC,0.00,VWS V13.00,2013-05-23 05:21:00,
2013-05-23 00:26:00,66.7,65.2,29.87,WSW,245,0.0,2.0,95,0.00,,SKC,0.00,VWS V13.00,2013-05-23 05:26:00,
2013-05-23 00:30:00,66.8,65.3,29.87,West,266,1.0,5.0,95,0.00,,SKC,0.00,VWS V13.00,2013-05-23 05:30:00,
2013-05-23 00:35:00,66.8,65.3,29.87,WSW,254,0.0,5.0,95,0.00,,SKC,0.00,VWS V13.00,2013-05-23 05:35:00,
2013-05-23 00:40:00,66.8,65.3,29.87,West,273,1.0,5.0,95,0.00,,SKC,0.00,VWS V13.00,2013-05-23 05:40:00,
2013-05-23 00:45:00,66.9,65.4,29.87,West,273,1.0,5.0,95,0.00,,SKC,0.00,VWS V13.00,2013-05-23 05:45:00,
2013-05-23 00:50:00,66.9,65.4,29.87,West,273,0.0,5.0,95,0.00,,SKC,0.00,VWS V13.00,2013-05-23 05:50:00,
2013-05-23 00:55:00,66.9,65.4,29.87,West,273,0.0,5.0,95,0.00,,SKC,0.00,VWS V13.00,2013-05-23 05:55:00,
2013-05-23 01:00:00,66.9,65.4,29.87,West,273,0.0,5.0,95,0.00,,SKC,0.00,VWS V13.00,2013-05-23 06:00:00,
2013-05-23 01:05:00,66.8,65.3,29.87,West,273,0.0,4.0,95,0.00,,SKC,0.00,VWS V13.00,2013-05-23 06:05:00,
2013-05-23 01:10:00,66.7,65.2,29.87,West,273,0.0,4.0,95,0.00,,SKC,0.00,VWS V13.00,2013-05-23 06:10:00,
2013-05-23 01:15:00,66.7,65.2,29.87,West,273,0.0,4.0,95,0.00,,SKC,0.00,VWS V13.00,2013-05-23 06:15:00,
2013-05-23 01:20:00,66.7,65.2,29.87,WSW,257,0.0,5.0,95,0.00,,SKC,0.00,VWS V13.00,2013-05-23 06:20:00,
2013-05-23 01:25:00,66.7,65.5,29.87,West,280,1.0,5.0,96,0.00,,SKC,0.00,VWS V13.00,2013-05-23 06:25:00,
2013-05-23 01:30:00,66.8,65.6,29.87,WNW,288,0.0,5.0,96,0.00,,SKC,0.00,VWS V13.00,2013-05-23 06:30:00,
2013-05-23 01:35:00,66.9,65.7,29.87,West,279,2.0,4.0,96,0.00,,SKC,0.00,VWS V13.00,2013-05-23 06:35:00,
2013-05-23 01:40:00,66.9,65.7,29.87,West,275,1.0,4.0,96,0.00,,SKC,0.00,VWS V13.00,2013-05-23 06:40:00,
2013-05-23 01:45:00,66.8,65.3,29.87,West,275,0.0,4.0,95,0.00,,SKC,0.00,VWS V13.00,2013-05-23 06:45:00,
2013-05-23 01:50:00,66.6,65.1,29.87,West,275,0.0,4.0,95,0.00,,SKC,0.00,VWS V13.00,2013-05-23 06:50:00,
2013-05-23 01:55:00,66.5,65.3,29.87,West,275,0.0,4.0,96,0.00,,SKC,0.00,VWS V13.00,2013-05-23 06:55:00,
2013-05-23 02:00:00,66.4,65.2,29.87,West,275,0.0,4.0,96,0.00,,SKC,0.00,VWS V13.00,2013-05-23 07:00:00,
2013-05-23 02:05:00,66.3,65.1,29.87,West,268,0.0,4.0,96,0.00,,SKC,0.00,VWS V13.00,2013-05-23 07:05:00,
2013-05-23 02:10:00,66.2,65.0,29.87,West,268,1.0,4.0,96,0.00,,SKC,0.00,VWS V13.00,2013-05-23 07:10:00,
2013-05-23 02:15:00,66.2,65.0,29.87,West,281,1.0,4.0,96,0.00,,SKC,0.00,VWS V13.00,2013-05-23 07:15:00,
2013-05-23 02:20:00,66.1,64.9,29.87,West,281,0.0,4.0,96,0.00,,SKC,0.00,VWS V13.00,2013-05-23 07:20:00,
2013-05-23 02:25:00,66.0,64.8,29.87,West,281,2.0,4.0,96,0.00,,SKC,0.00,VWS V13.00,2013-05-23 07:25:00,
2013-05-23 02:30:00,65.9,64.7,29.88,West,281,0.0,4.0,96,0.00,,SKC,0.00,VWS V13.00,2013-05-23 07:30:00,
2013-05-23 02:35:00,65.8,64.9,29.88,West,281,0.0,3.0,97,0.00,,SKC,0.00,VWS V13.00,2013-05-23 07:35:00,
2013-05-23 02:40:00,65.8,64.9,29.88,West,281,2.0,3.0,97,0.00,,SKC,0.00,VWS V13.00,2013-05-23 07:40:00,
2013-05-23 02:45:00,65.8,64.9,29.88,West,281,0.0,3.0,97,0.00,,SKC,0.00,VWS V13.00,2013-05-23 07:45:00,
2013-05-23 02:50:00,65.7,64.8,29.88,West,281,0.0,3.0,97,0.00,,SKC,0.00,VWS V13.00,2013-05-23 07:50:00,
2013-05-23 02:55:00,65.6,64.7,29.88,West,281,0.0,3.0,97,0.00,,SKC,0.00,VWS V13.00,2013-05-23 07:55:00,
2013-05-23 03:00:00,65.5,64.6,29.88,West,281,0.0,3.0,97,0.00,,SKC,0.00,VWS V13.00,2013-05-23 08:00:00,
2013-05-23 03:05:00,65.5,64.6,29.90,West,281,0.0,1.0,97,0.00,,SKC,0.00,VWS V13.00,2013-05-23 08:05:00,
2013-05-23 03:10:00,65.4,64.5,29.90,West,281,0.0,1.0,97,0.00,,SKC,0.00,VWS V13.00,2013-05-23 08:10:00,
2013-05-23 03:15:00,65.3,64.4,29.90,West,281,0.0,1.0,97,0.00,,SKC,0.00,VWS V13.00,2013-05-23 08:15:00,
2013-05-23 03:20:00,65.3,64.4,29.90,West,281,0.0,1.0,97,0.00,,SKC,0.00,VWS V13.00,2013-05-23 08:20:00,
2013-05-23 03:25:00,65.2,64.3,29.90,West,281,0.0,1.0,97,0.00,,SKC,0.00,VWS V13.00,2013-05-23 08:25:00,
2013-05-23 03:30:00,65.2,64.3,29.90,West,281,0.0,1.0,97,0.00,,SKC,0.00,VWS V13.00,2013-05-23 08:30:00,
2013-05-23 03:35:00,65.1,64.2,29.91,West,281,0.0,0.0,97,0.00,,SKC,0.00,VWS V13.00,2013-05-23 08:35:00,
2013-05-23 03:40:00,65.0,64.1,29.91,West,281,0.0,0.0,97,0.00,,SKC,0.00,VWS V13.00,2013-05-23 08:40:00,
2013-05-23 03:45:00,65.0,64.4,29.91,West,281,0.0,2.0,98,0.00,,SKC,0.00,VWS V13.00,2013-05-23 08:45:00,
2013-05-23 03:50:00,65.0,64.4,29.91,West,281,0.0,2.0,98,0.00,,SKC,0.00,VWS V13.00,2013-05-23 08:50:00,
2013-05-23 03:55:00,64.9,64.3,29.91,West,281,0.0,2.0,98,0.00,,SKC,0.00,VWS V13.00,2013-05-23 08:55:00,
2013-05-23 04:00:00,64.8,64.2,29.92,West,281,0.0,2.0,98,0.00,,SKC,0.00,VWS V13.00,2013-05-23 09:00:00,
2013-05-23 04:05:00,64.8,64.2,29.91,West,281,1.0,2.0,98,0.00,,SKC,0.00,VWS V13.00,2013-05-23 09:05:00,
2013-05-23 04:10:00,64.7,64.1,29.91,West,275,0.0,3.0,98,0.00,,SKC,0.00,VWS V13.00,2013-05-23 09:10:00,
2013-05-23 04:15:00,64.6,64.0,29.91,West,265,1.0,3.0,98,0.01,,SKC,0.01,VWS V13.00,2013-05-23 09:15:00,
2013-05-23 04:20:00,64.6,64.0,29.91,SW,234,0.0,4.0,98,0.01,,SKC,0.01,VWS V13.00,2013-05-23 09:20:00,
2013-05-23 04:25:00,64.6,64.0,29.91,SW,234,1.0,4.0,98,0.01,,SKC,0.01,VWS V13.00,2013-05-23 09:25:00,
2013-05-23 04:30:00,64.5,63.9,29.91,SW,234,1.0,4.0,98,0.01,,SKC,0.01,VWS V13.00,2013-05-23 09:30:00,
2013-05-23 04:35:00,64.4,63.8,29.91,SW,234,0.0,2.0,98,0.01,,SKC,0.01,VWS V13.00,2013-05-23 09:35:00,
2013-05-23 04:40:00,64.3,63.7,29.91,SW,234,1.0,2.0,98,0.01,,SKC,0.01,VWS V13.00,2013-05-23 09:40:00,
2013-05-23 04:45:00,64.2,63.6,29.91,SW,234,1.0,2.0,98,0.01,,SKC,0.01,VWS V13.00,2013-05-23 09:45:00,
2013-05-23 04:50:00,64.2,63.6,29.91,SW,234,0.0,3.0,98,0.01,,SKC,0.01,VWS V13.00,2013-05-23 09:50:00,
2013-05-23 04:55:00,64.2,63.6,29.91,SW,227,2.0,4.0,98,0.01,,SKC,0.01,VWS V13.00,2013-05-23 09:55:00,
2013-05-23 05:00:00,64.2,63.6,29.91,SW,227,1.0,4.0,98,0.01,,SKC,0.01,VWS V13.00,2013-05-23 10:00:00,
2013-05-23 05:05:00,64.2,63.6,29.92,SW,227,2.0,4.0,98,0.01,,SKC,0.01,VWS V13.00,2013-05-23 10:05:00,
2013-05-23 05:10:00,64.2,63.6,29.92,SW,227,2.0,4.0,98,0.01,,SKC,0.01,VWS V13.00,2013-05-23 10:10:00,
2013-05-23 05:15:00,64.1,63.5,29.92,SW,227,2.0,4.0,98,0.01,,SKC,0.01,VWS V13.00,2013-05-23 10:15:00,
2013-05-23 05:20:00,64.3,63.7,29.93,WSW,238,1.0,5.0,98,0.01,,SKC,0.01,VWS V13.00,2013-05-23 10:20:00,
2013-05-23 05:25:00,64.3,63.7,29.93,SW,227,4.0,5.0,98,0.01,,SKC,0.01,VWS V13.00,2013-05-23 10:25:00,
2013-05-23 05:30:00,64.3,64.0,29.93,SW,234,1.0,5.0,99,0.01,,SKC,0.01,VWS V13.00,2013-05-23 10:30:00,
2013-05-23 05:35:00,64.4,64.1,29.93,SW,228,1.0,5.0,99,0.00,,SKC,0.01,VWS V13.00,2013-05-23 10:35:00,
2013-05-23 05:40:00,64.4,63.8,29.93,SW,214,1.0,5.0,98,0.00,,SKC,0.01,VWS V13.00,2013-05-23 10:40:00,
2013-05-23 05:45:00,64.4,63.8,29.93,SW,221,0.0,5.0,98,0.00,,SKC,0.01,VWS V13.00,2013-05-23 10:45:00,
2013-05-23 05:50:00,64.5,64.2,29.93,SW,221,2.0,5.0,99,0.00,,SKC,0.01,VWS V13.00,2013-05-23 10:50:00,
2013-05-23 05:55:00,64.5,64.2,29.94,SW,221,4.0,5.0,99,0.00,,SKC,0.01,VWS V13.00,2013-05-23 10:55:00,
2013-05-23 06:00:00,64.6,64.3,29.94,SW,221,3.0,5.0,99,0.00,,SKC,0.01,VWS V13.00,2013-05-23 11:00:00,
2013-05-23 06:05:00,64.7,64.4,29.94,SW,222,0.0,3.0,99,0.00,,SKC,0.01,VWS V13.00,2013-05-23 11:05:00,
2013-05-23 06:10:00,64.7,64.4,29.94,SW,222,0.0,3.0,99,0.00,,SKC,0.01,VWS V13.00,2013-05-23 11:10:00,
2013-05-23 06:15:00,64.7,64.4,29.94,SW,236,0.0,5.0,99,0.00,,SKC,0.01,VWS V13.00,2013-05-23 11:15:00,
2013-05-23 06:20:00,64.8,64.5,29.94,WSW,249,5.0,5.0,99,0.00,,SKC,0.01,VWS V13.00,2013-05-23 11:20:00,
2013-05-23 06:25:00,64.7,64.4,29.94,SW,233,2.0,5.0,99,0.00,,SKC,0.01,VWS V13.00,2013-05-23 11:25:00,
2013-05-23 06:30:00,64.8,64.5,29.94,WSW,254,0.0,5.0,99,0.00,,SKC,0.01,VWS V13.00,2013-05-23 11:30:00,
2013-05-23 06:35:00,64.8,64.5,29.94,WSW,257,1.0,5.0,99,0.00,,SKC,0.01,VWS V13.00,2013-05-23 11:35:00,
2013-05-23 06:40:00,64.8,64.5,29.94,SW,227,2.0,6.0,99,0.00,,SKC,0.01,VWS V13.00,2013-05-23 11:40:00,
2013-05-23 06:44:00,64.9,64.6,29.94,SW,236,2.0,6.0,99,0.00,,SKC,0.01,VWS V13.00,2013-05-23 11:44:00,
2013-05-23 06:49:00,64.8,64.5,29.94,SSW,209,1.0,6.0,99,0.00,,SKC,0.01,VWS V13.00,2013-05-23 11:49:00,
2013-05-23 06:54:00,64.9,64.6,29.94,SW,221,0.0,6.0,99,0.00,,SKC,0.01,VWS V13.00,2013-05-23 11:54:00,
2013-05-23 06:59:00,65.1,64.8,29.94,SW,221,0.0,6.0,99,0.00,,SKC,0.01,VWS V13.00,2013-05-23 11:59:00,
2013-05-23 07:04:00,65.1,64.8,29.95,SW,217,0.0,5.0,99,0.00,,SKC,0.01,VWS V13.00,2013-05-23 12:04:00,
2013-05-23 07:09:00,65.2,64.9,29.95,SW,215,5.0,6.0,99,0.00,,SKC,0.01,VWS V13.00,2013-05-23 12:09:00,
2013-05-23 07:14:00,65.2,64.9,29.95,WSW,246,2.0,6.0,99,0.00,,SKC,0.01,VWS V13.00,2013-05-23 12:14:00,
2013-05-23 07:19:00,65.4,65.1,29.95,SW,233,0.0,6.0,99,0.00,,SKC,0.01,VWS V13.00,2013-05-23 12:19:00,
2013-05-23 07:24:00,65.9,65.6,29.95,SW,221,0.0,6.0,99,0.00,,SKC,0.01,VWS V13.00,2013-05-23 12:24:00,
2013-05-23 07:29:00,66.5,66.2,29.95,SW,223,3.0,6.0,99,0.00,,SKC,0.01,VWS V13.00,2013-05-23 12:29:00,
2013-05-23 07:34:00,66.7,66.4,29.94,SW,220,4.0,5.0,99,0.00,,SKC,0.01,VWS V13.00,2013-05-23 12:34:00,
2013-05-23 07:39:00,66.9,66.6,29.95,SW,224,0.0,5.0,99,0.00,,SKC,0.01,VWS V13.00,2013-05-23 12:39:00,
2013-05-23 07:44:00,67.2,66.6,29.95,SW,216,2.0,5.0,98,0.00,,SKC,0.01,VWS V13.00,2013-05-23 12:44:00,
2013-05-23 07:49:00,67.3,66.7,29.95,SW,216,0.0,5.0,98,0.00,,SKC,0.01,VWS V13.00,2013-05-23 12:49:00,
2013-05-23 07:54:00,67.5,66.9,29.95,West,267,2.0,5.0,98,0.00,,SKC,0.01,VWS V13.00,2013-05-23 12:54:00,
2013-05-23 07:59:00,68.0,67.4,29.95,SW,218,3.0,5.0,98,0.00,,SKC,0.01,VWS V13.00,2013-05-23 12:59:00,
2013-05-23 08:04:00,68.3,67.4,29.95,West,277,1.0,6.0,97,0.00,,SKC,0.01,VWS V13.00,2013-05-23 13:04:00,
2013-05-23 08:09:00,68.8,67.9,29.95,SW,220,0.0,6.0,97,0.00,,SKC,0.01,VWS V13.00,2013-05-23 13:09:00,
2013-05-23 08:14:00,69.1,67.3,29.95,West,281,5.0,6.0,94,0.00,,SKC,0.01,VWS V13.00,2013-05-23 13:14:00,
2013-05-23 08:19:00,69.4,67.6,29.95,WSW,250,4.0,6.0,94,0.00,,SKC,0.01,VWS V13.00,2013-05-23 13:19:00,
2013-05-23 08:24:00,69.9,67.8,29.95,WNW,284,4.0,6.0,93,0.00,,SKC,0.01,VWS V13.00,2013-05-23 13:24:00,
2013-05-23 08:29:00,70.5,68.1,29.95,West,262,1.0,7.0,92,0.00,,SKC,0.01,VWS V13.00,2013-05-23 13:29:00,
2013-05-23 08:34:00,71.1,68.3,29.95,West,281,4.0,7.0,91,0.00,,SKC,0.01,VWS V13.00,2013-05-23 13:34:00,
2013-05-23 08:39:00,71.4,67.7,29.95,WNW,293,5.0,10.0,88,0.00,,SKC,0.01,VWS V13.00,2013-05-23 13:39:00,
2013-05-23 08:44:00,71.7,68.3,29.95,NW,307,4.0,10.0,89,0.00,,SKC,0.01,VWS V13.00,2013-05-23 13:44:00,
2013-05-23 08:49:00,71.9,67.8,29.95,WSW,237,4.0,10.0,87,0.00,,SKC,0.01,VWS V13.00,2013-05-23 13:49:00,
2013-05-23 08:54:00,72.1,68.0,29.95,WNW,292,4.0,10.0,87,0.00,,SKC,0.01,VWS V13.00,2013-05-23 13:54:00,
2013-05-23 08:59:00,72.4,67.3,29.95,NW,304,5.0,10.0,84,0.00,,SKC,0.01,VWS V13.00,2013-05-23 13:59:00,
2013-05-23 09:04:00,72.8,68.0,29.95,WSW,252,5.0,6.0,85,0.00,,SKC,0.01,VWS V13.00,2013-05-23 14:04:00,
2013-05-23 09:09:00,73.2,67.7,29.95,West,259,2.0,9.0,83,0.00,,SKC,0.01,VWS V13.00,2013-05-23 14:09:00,
2013-05-23 09:14:00,73.6,67.4,29.95,West,281,2.0,9.0,81,0.00,,SKC,0.01,VWS V13.00,2013-05-23 14:14:00,
2013-05-23 09:19:00,73.7,67.2,29.95,SW,232,5.0,9.0,80,0.00,,SKC,0.01,VWS V13.00,2013-05-23 14:19:00,
2013-05-23 09:24:00,74.1,67.9,29.94,NW,316,8.0,9.0,81,0.00,,SKC,0.01,VWS V13.00,2013-05-23 14:24:00,
2013-05-23 09:29:00,74.3,68.1,29.94,West,273,4.0,9.0,81,0.00,,SKC,0.01,VWS V13.00,2013-05-23 14:29:00,
2013-05-23 09:34:00,74.5,67.2,29.95,WNW,296,7.0,9.0,78,0.00,,SKC,0.01,VWS V13.00,2013-05-23 14:34:00,
2013-05-23 09:39:00,74.7,68.1,29.94,NW,324,5.0,9.0,80,0.00,,SKC,0.01,VWS V13.00,2013-05-23 14:39:00,
2013-05-23 09:44:00,74.7,67.8,29.94,NW,312,7.0,11.0,79,0.00,,SKC,0.01,VWS V13.00,2013-05-23 14:44:00,
2013-05-23 09:49:00,74.9,67.6,29.94,NW,317,1.0,11.0,78,0.00,,SKC,0.01,VWS V13.00,2013-05-23 14:49:00,
2013-05-23 09:54:00,75.5,68.5,29.94,WNW,282,5.0,11.0,79,0.00,,SKC,0.01,VWS V13.00,2013-05-23 14:54:00,
2013-05-23 09:59:00,75.7,66.8,29.94,WNW,295,4.0,11.0,74,0.00,,SKC,0.01,VWS V13.00,2013-05-23 14:59:00,
2013-05-23 10:04:00,75.3,67.6,29.94,WSW,242,1.0,8.0,77,0.00,,SKC,0.01,VWS V13.00,2013-05-23 15:04:00,
2013-05-23 10:09:00,75.3,68.0,29.95,NW,320,5.0,10.0,78,0.00,,SKC,0.01,VWS V13.00,2013-05-23 15:09:00,
2013-05-23 10:14:00,75.8,68.1,29.94,West,279,7.0,10.0,77,0.00,,SKC,0.01,VWS V13.00,2013-05-23 15:14:00,
2013-05-23 10:19:00,76.1,67.2,29.95,WNW,293,4.0,10.0,74,0.00,,SKC,0.01,VWS V13.00,2013-05-23 15:19:00,
2013-05-23 10:24:00,76.6,68.5,29.94,WNW,288,6.0,10.0,76,0.00,,SKC,0.01,VWS V13.00,2013-05-23 15:24:00,
2013-05-23 10:29:00,77.0,68.1,29.95,WNW,294,5.0,11.0,74,0.00,,SKC,0.01,VWS V13.00,2013-05-23 15:29:00,
2013-05-23 10:34:00,76.2,67.7,29.95,WNW,297,5.0,8.0,75,0.00,,SKC,0.01,VWS V13.00,2013-05-23 15:34:00,
2013-05-23 10:39:00,76.4,67.1,29.95,NNW,346,7.0,9.0,73,0.00,,SKC,0.01,VWS V13.00,2013-05-23 15:39:00,
2013-05-23 10:44:00,76.4,67.1,29.95,West,259,4.0,11.0,73,0.00,,SKC,0.01,VWS V13.00,2013-05-23 15:44:00,
2013-05-23 10:49:00,76.1,68.0,29.95,NW,315,7.0,12.0,76,0.00,,SKC,0.01,VWS V13.00,2013-05-23 15:49:00,
2013-05-23 10:54:00,76.8,67.5,29.95,NNW,331,8.0,12.0,73,0.00,,SKC,0.01,VWS V13.00,2013-05-23 15:54:00,
2013-05-23 10:59:00,77.1,69.0,29.95,NW,313,13.0,13.0,76,0.00,,SKC,0.01,VWS V13.00,2013-05-23 15:59:00,
2013-05-23 11:04:00,77.3,68.4,29.94,West,274,8.0,9.0,74,0.00,,SKC,0.01,VWS V13.00,2013-05-23 16:04:00,
2013-05-23 11:09:00,77.4,66.9,29.94,NW,323,7.0,10.0,70,0.00,,SKC,0.01,VWS V13.00,2013-05-23 16:09:00,
2013-05-23 11:14:00,77.4,67.3,29.94,West,271,7.0,12.0,71,0.00,,SKC,0.01,VWS V13.00,2013-05-23 16:14:00,
2013-05-23 11:19:00,77.8,67.2,29.94,NW,306,8.0,12.0,70,0.00,,SKC,0.01,VWS V13.00,2013-05-23 16:19:00,
2013-05-23 11:24:00,77.7,65.4,29.94,NNW,339,8.0,14.0,66,0.00,,SKC,0.01,VWS V13.00,2013-05-23 16:24:00,
2013-05-23 11:29:00,77.8,66.4,29.94,WNW,284,11.0,14.0,68,0.00,,SKC,0.01,VWS V13.00,2013-05-23 16:29:00,
2013-05-23 11:34:00,78.4,66.6,29.94,West,263,3.0,15.0,67,0.00,,SKC,0.01,VWS V13.00,2013-05-23 16:34:00,
2013-05-23 11:39:00,78.4,64.8,29.93,WNW,288,10.0,16.0,63,0.00,,SKC,0.01,VWS V13.00,2013-05-23 16:39:00,
2013-05-23 11:44:00,78.4,64.3,29.94,West,265,7.0,16.0,62,0.00,,SKC,0.01,VWS V13.00,2013-05-23 16:44:00,
2013-05-23 11:49:00,78.7,66.0,29.94,WNW,290,9.0,16.0,65,0.00,,SKC,0.01,VWS V13.00,2013-05-23 16:49:00,
2013-05-23 11:54:00,78.7,65.1,29.94,WNW,300,8.0,16.0,63,0.00,,SKC,0.01,VWS V13.00,2013-05-23 16:54:00,
2013-05-23 11:59:00,78.7,65.5,29.94,West,268,10.0,18.0,64,0.00,,SKC,0.01,VWS V13.00,2013-05-23 16:59:00,
2013-05-23 12:04:00,78.8,65.2,29.94,NNW,333,9.0,16.0,63,0.00,,SKC,0.01,VWS V13.00,2013-05-23 17:04:00,
2013-05-23 12:09:00,79.0,65.8,29.94,NW,308,10.0,16.0,64,0.00,,SKC,0.01,VWS V13.00,2013-05-23 17:09:00,
2013-05-23 12:14:00,78.9,66.2,29.94,NW,321,11.0,16.0,65,0.00,,SKC,0.01,VWS V13.00,2013-05-23 17:14:00,
2013-05-23 12:19:00,78.8,65.2,29.94,NW,306,6.0,16.0,63,0.00,,SKC,0.01,VWS V13.00,2013-05-23 17:19:00,
2013-05-23 12:24:00,79.2,66.0,29.94,WNW,302,10.0,16.0,64,0.00,,SKC,0.01,VWS V13.00,2013-05-23 17:24:00,
2013-05-23 12:29:00,79.7,65.5,29.94,WNW,290,9.0,16.0,62,0.00,,SKC,0.01,VWS V13.00,2013-05-23 17:29:00,
2013-05-23 12:34:00,79.6,66.4,29.94,WNW,296,10.0,11.0,64,0.00,,SKC,0.01,VWS V13.00,2013-05-23 17:34:00,
2013-05-23 12:39:00,79.6,66.4,29.94,NNW,331,7.0,14.0,64,0.00,,SKC,0.01,VWS V13.00,2013-05-23 17:39:00,
2013-05-23 12:44:00,79.1,64.5,29.94,NNW,329,10.0,15.0,61,0.00,,SKC,0.01,VWS V13.00,2013-05-23 17:44:00,
2013-05-23 12:49:00,79.3,67.0,29.94,NW,315,10.0,15.0,66,0.00,,SKC,0.01,VWS V13.00,2013-05-23 17:49:00,
2013-05-23 12:54:00,79.9,63.3,29.94,NW,309,11.0,19.0,57,0.00,,SKC,0.01,VWS V13.00,2013-05-23 17:54:00,
2013-05-23 12:59:00,80.0,63.9,29.94,NNW,338,9.0,19.0,58,0.00,,SKC,0.01,VWS V13.00,2013-05-23 17:59:00,
2013-05-23 13:04:00,79.9,64.3,29.93,WNW,292,9.0,15.0,59,0.00,,SKC,0.01,VWS V13.00,2013-05-23 18:04:00,
2013-05-23 13:09:00,80.1,62.5,29.94,NW,326,11.0,16.0,55,0.00,,SKC,0.01,VWS V13.00,2013-05-23 18:09:00,
2013-05-23 13:14:00,80.0,61.3,29.94,NW,312,12.0,20.0,53,0.00,,SKC,0.01,VWS V13.00,2013-05-23 18:14:00,
2013-05-23 13:19:00,80.2,62.6,29.94,NW,304,10.0,20.0,55,0.00,,SKC,0.01,VWS V13.00,2013-05-23 18:19:00,
2013-05-23 13:24:00,80.2,61.5,29.94,WNW,296,8.0,20.0,53,0.00,,SKC,0.01,VWS V13.00,2013-05-23 18:24:00,
2013-05-23 13:29:00,80.1,64.0,29.94,WNW,299,8.0,20.0,58,0.00,,SKC,0.01,VWS V13.00,2013-05-23 18:29:00,
2013-05-23 13:34:00,80.5,62.3,29.94,West,279,10.0,18.0,54,0.00,,SKC,0.01,VWS V13.00,2013-05-23 18:34:00,
2013-05-23 13:39:00,80.3,62.2,29.94,West,281,11.0,22.0,54,0.00,,SKC,0.01,VWS V13.00,2013-05-23 18:39:00,
2013-05-23 13:44:00,80.3,62.2,29.94,WNW,293,10.0,22.0,54,0.00,,SKC,0.01,VWS V13.00,2013-05-23 18:44:00,
2013-05-23 13:49:00,80.5,61.8,29.94,NW,304,7.0,22.0,53,0.00,,SKC,0.01,VWS V13.00,2013-05-23 18:49:00,
2013-05-23 13:54:00,80.7,62.0,29.94,WNW,296,7.0,22.0,53,0.00,,SKC,0.01,VWS V13.00,2013-05-23 18:54:00,
2013-05-23 13:59:00,80.6,62.4,29.94,WNW,290,8.0,22.0,54,0.00,,SKC,0.01,VWS V13.00,2013-05-23 18:59:00,
2013-05-23 14:04:00,81.0,61.7,29.94,NNW,329,12.0,19.0,52,0.00,,SKC,0.01,VWS V13.00,2013-05-23 19:04:00,
2013-05-23 14:09:00,80.9,62.2,29.94,NW,309,13.0,19.0,53,0.00,,SKC,0.01,VWS V13.00,2013-05-23 19:09:00,
2013-05-23 14:14:00,81.4,63.2,29.93,NW,315,8.0,19.0,54,0.00,,SKC,0.01,VWS V13.00,2013-05-23 19:14:00,
2013-05-23 14:19:00,81.0,61.7,29.94,WNW,288,8.0,19.0,52,0.00,,SKC,0.01,VWS V13.00,2013-05-23 19:19:00,
2013-05-23 14:24:00,79.9,60.7,29.94,NW,304,12.0,19.0,52,0.00,,SKC,0.01,VWS V13.00,2013-05-23 19:24:00,
2013-05-23 14:29:00,79.4,60.8,29.94,NW,325,8.0,19.0,53,0.00,,SKC,0.01,VWS V13.00,2013-05-23 19:29:00,
2013-05-23 14:34:00,78.9,60.3,29.94,WNW,302,8.0,12.0,53,0.00,,SKC,0.01,VWS V13.00,2013-05-23 19:34:00,
2013-05-23 14:39:00,78.3,61.3,29.93,NW,321,8.0,13.0,56,0.00,,SKC,0.01,VWS V13.00,2013-05-23 19:39:00,
2013-05-23 14:44:00,78.4,62.9,29.93,WNW,301,7.0,13.0,59,0.00,,SKC,0.01,VWS V13.00,2013-05-23 19:44:00,
2013-05-23 14:49:00,79.5,61.4,29.93,WNW,282,13.0,18.0,54,0.00,,SKC,0.01,VWS V13.00,2013-05-23 19:49:00,
2013-05-23 14:54:00,80.0,60.3,29.93,North,355,12.0,20.0,51,0.00,,SKC,0.01,VWS V13.00,2013-05-23 19:54:00,
2013-05-23 14:59:00,79.5,59.8,29.93,NW,317,10.0,20.0,51,0.00,,SKC,0.01,VWS V13.00,2013-05-23 19:59:00,
2013-05-23 15:04:00,79.8,61.7,29.93,NNW,338,8.0,11.0,54,0.00,,SKC,0.01,VWS V13.00,2013-05-23 20:04:00,
2013-05-23 15:09:00,79.7,60.5,29.93,North,5,10.0,14.0,52,0.00,,SKC,0.01,VWS V13.00,2013-05-23 20:09:00,
2013-05-23 15:14:00,79.8,61.7,29.92,NW,319,14.0,15.0,54,0.00,,SKC,0.01,VWS V13.00,2013-05-23 20:14:00,
2013-05-23 15:19:00,80.1,63.0,29.93,NW,315,9.0,15.0,56,0.00,,SKC,0.01,VWS V13.00,2013-05-23 20:19:00,
2013-05-23 15:24:00,80.3,61.6,29.93,NW,321,8.0,18.0,53,0.00,,SKC,0.01,VWS V13.00,2013-05-23 20:24:00,
2013-05-23 15:29:00,80.1,60.9,29.93,North,5,11.0,18.0,52,0.00,,SKC,0.01,VWS V13.00,2013-05-23 20:29:00,
2013-05-23 15:34:00,79.9,61.3,29.93,NW,323,5.0,11.0,53,0.00,,SKC,0.01,VWS V13.00,2013-05-23 20:34:00,
2013-05-23 15:39:00,80.3,61.6,29.93,NNW,328,12.0,14.0,53,0.00,,SKC,0.01,VWS V13.00,2013-05-23 20:39:00,
2013-05-23 15:44:00,80.6,63.0,29.92,NW,308,11.0,14.0,55,0.00,,SKC,0.01,VWS V13.00,2013-05-23 20:44:00,
2013-05-23 15:49:00,80.7,62.0,29.93,West,278,12.0,14.0,53,0.00,,SKC,0.01,VWS V13.00,2013-05-23 20:49:00,
2013-05-23 15:54:00,80.3,61.1,29.93,NNW,338,6.0,18.0,52,0.00,,SKC,0.01,VWS V13.00,2013-05-23 20:54:00,
2013-05-23 15:59:00,80.4,60.6,29.93,WNW,300,9.0,18.0,51,0.00,,SKC,0.01,VWS V13.00,2013-05-23 20:59:00,
2013-05-23 16:04:00,80.0,60.8,29.93,WNW,298,6.0,12.0,52,0.00,,SKC,0.01,VWS V13.00,2013-05-23 21:04:00,
2013-05-23 16:09:00,80.5,60.7,29.93,NW,304,10.0,12.0,51,0.00,,SKC,0.01,VWS V13.00,2013-05-23 21:09:00,
2013-05-23 16:14:00,80.7,61.5,29.93,NW,317,13.0,13.0,52,0.00,,SKC,0.01,VWS V13.00,2013-05-23 21:14:00,
2013-05-23 16:19:00,80.4,61.2,29.93,NW,310,13.0,15.0,52,0.00,,SKC,0.01,VWS V13.00,2013-05-23 21:19:00,
2013-05-23 16:23:00,80.2,59.3,29.93,NW,311,8.0,15.0,49,0.00,,SKC,0.01,VWS V13.00,2013-05-23 21:23:00,
2013-05-23 16:28:00,80.2,60.5,29.93,NNW,332,12.0,15.0,51,0.00,,SKC,0.01,VWS V13.00,2013-05-23 21:28:00,
2013-05-23 16:33:00,80.0,58.0,29.93,NNW,340,11.0,15.0,47,0.00,,SKC,0.01,VWS V13.00,2013-05-23 21:33:00,
2013-05-23 16:38:00,80.0,60.3,29.93,NW,311,8.0,15.0,51,0.00,,SKC,0.01,VWS V13.00,2013-05-23 21:38:00,
2013-05-23 16:43:00,79.9,57.9,29.93,NW,313,9.0,15.0,47,0.00,,SKC,0.01,VWS V13.00,2013-05-23 21:43:00,
2013-05-23 16:48:00,79.9,59.0,29.93,NW,321,6.0,15.0,49,0.00,,SKC,0.01,VWS V13.00,2013-05-23 21:48:00,
2013-05-23 16:53:00,79.9,58.5,29.93,NNW,333,8.0,16.0,48,0.00,,SKC,0.01,VWS V13.00,2013-05-23 21:53:00,
2013-05-23 16:58:00,79.8,59.0,29.93,West,281,11.0,16.0,49,0.00,,SKC,0.01,VWS V13.00,2013-05-23 21:58:00,
2013-05-23 17:03:00,79.8,59.5,29.93,NW,311,9.0,10.0,50,0.00,,SKC,0.01,VWS V13.00,2013-05-23 22:03:00,
2013-05-23 17:08:00,79.4,60.3,29.93,NW,324,10.0,16.0,52,0.00,,SKC,0.01,VWS V13.00,2013-05-23 22:08:00,
2013-05-23 17:13:00,79.5,59.2,29.93,WNW,288,9.0,18.0,50,0.00,,SKC,0.01,VWS V13.00,2013-05-23 22:13:00,
2013-05-23 17:18:00,79.5,59.8,29.93,NW,317,11.0,18.0,51,0.00,,SKC,0.01,VWS V13.00,2013-05-23 22:18:00,
2013-05-23 17:23:00,78.7,59.1,29.93,NNW,342,9.0,18.0,51,0.00,,SKC,0.01,VWS V13.00,2013-05-23 22:23:00,
2013-05-23 17:28:00,78.0,58.4,29.93,NW,315,6.0,18.0,51,0.00,,SKC,0.01,VWS V13.00,2013-05-23 22:28:00,
2013-05-23 17:33:00,77.5,59.0,29.93,NNW,327,7.0,9.0,53,0.00,,SKC,0.01,VWS V13.00,2013-05-23 22:33:00,
2013-05-23 17:38:00,77.2,59.3,29.93,NW,312,6.0,11.0,54,0.00,,SKC,0.01,VWS V13.00,2013-05-23 22:38:00,
2013-05-23 17:43:00,77.1,58.7,29.93,NW,311,7.0,11.0,53,0.00,,SKC,0.01,VWS V13.00,2013-05-23 22:43:00,
2013-05-23 17:48:00,77.1,58.7,29.93,NW,314,7.0,12.0,53,0.00,,SKC,0.01,VWS V13.00,2013-05-23 22:48:00,
2013-05-23 17:53:00,77.3,60.9,29.93,NW,325,6.0,12.0,57,0.00,,SKC,0.01,VWS V13.00,2013-05-23 22:53:00,
2013-05-23 17:58:00,77.3,59.9,29.93,NW,313,6.0,12.0,55,0.00,,SKC,0.01,VWS V13.00,2013-05-23 22:58:00,
2013-05-23 18:03:00,76.9,59.5,29.93,NNW,330,4.0,8.0,55,0.00,,SKC,0.01,VWS V13.00,2013-05-23 23:03:00,
2013-05-23 18:08:00,76.7,59.8,29.93,NNW,327,8.0,14.0,56,0.00,,SKC,0.01,VWS V13.00,2013-05-23 23:08:00,
2013-05-23 18:13:00,76.5,59.2,29.93,NNW,327,6.0,14.0,55,0.00,,SKC,0.01,VWS V13.00,2013-05-23 23:13:00,
2013-05-23 18:18:00,76.8,59.9,29.93,WNW,292,9.0,14.0,56,0.00,,SKC,0.01,VWS V13.00,2013-05-23 23:18:00,
2013-05-23 18:23:00,77.2,60.3,29.93,WNW,298,7.0,14.0,56,0.00,,SKC,0.01,VWS V13.00,2013-05-23 23:23:00,
2013-05-23 18:28:00,77.2,59.8,29.93,NW,307,8.0,14.0,55,0.00,,SKC,0.01,VWS V13.00,2013-05-23 23:28:00,
2013-05-23 18:33:00,77.0,60.1,29.93,NW,320,4.0,6.0,56,0.00,,SKC,0.01,VWS V13.00,2013-05-23 23:33:00,
2013-05-23 18:38:00,76.8,60.4,29.93,NNW,327,7.0,10.0,57,0.00,,SKC,0.01,VWS V13.00,2013-05-23 23:38:00,
2013-05-23 18:43:00,76.6,59.8,29.93,WNW,290,7.0,11.0,56,0.00,,SKC,0.01,VWS V13.00,2013-05-23 23:43:00,
2013-05-23 18:48:00,76.4,60.1,29.94,WNW,297,6.0,12.0,57,0.00,,SKC,0.01,VWS V13.00,2013-05-23 23:48:00,
2013-05-23 18:53:00,76.0,60.2,29.94,NNW,329,4.0,12.0,58,0.00,,SKC,0.01,VWS V13.00,2013-05-23 23:53:00,
2013-05-23 18:58:00,75.5,60.7,29.94,NW,304,12.0,12.0,60,0.00,,SKC,0.01,VWS V13.00,2013-05-23 23:58:00,
2013-05-23 19:03:00,75.1,60.8,29.94,WNW,296,5.0,7.0,61,0.00,,SKC,0.01,VWS V13.00,2013-05-24 00:03:00,
2013-05-23 19:08:00,74.7,60.4,29.93,NW,309,4.0,8.0,61,0.00,,SKC,0.01,VWS V13.00,2013-05-24 00:08:00,
2013-05-23 19:13:00,74.6,60.7,29.93,NNW,333,7.0,8.0,62,0.00,,SKC,0.01,VWS V13.00,2013-05-24 00:13:00,
2013-05-23 19:18:00,74.4,60.5,29.93,NW,323,2.0,8.0,62,0.00,,SKC,0.01,VWS V13.00,2013-05-24 00:18:00,
2013-05-23 19:23:00,74.3,60.9,29.93,WNW,286,4.0,8.0,63,0.00,,SKC,0.01,VWS V13.00,2013-05-24 00:23:00,
2013-05-23 19:28:00,74.2,61.2,29.94,NW,311,3.0,8.0,64,0.00,,SKC,0.01,VWS V13.00,2013-05-24 00:28:00,
2013-05-23 19:33:00,74.0,61.1,29.93,NW,306,2.0,5.0,64,0.00,,SKC,0.01,VWS V13.00,2013-05-24 00:33:00,
2013-05-23 19:38:00,73.8,60.9,29.93,NW,308,7.0,7.0,64,0.00,,SKC,0.01,VWS V13.00,2013-05-24 00:38:00,
2013-05-23 19:43:00,73.7,60.8,29.93,NW,311,5.0,7.0,64,0.00,,SKC,0.01,VWS V13.00,2013-05-24 00:43:00,
2013-05-23 19:48:00,73.7,60.8,29.93,NW,312,3.0,8.0,64,0.00,,SKC,0.01,VWS V13.00,2013-05-24 00:48:00,
2013-05-23 19:53:00,73.5,61.0,29.94,NW,308,6.0,8.0,65,0.00,,SKC,0.01,VWS V13.00,2013-05-24 00:53:00,
2013-05-23 19:58:00,73.4,60.9,29.94,WNW,296,4.0,8.0,65,0.00,,SKC,0.01,VWS V13.00,2013-05-24 00:58:00,
2013-05-23 20:03:00,73.3,60.8,29.94,NW,310,2.0,6.0,65,0.00,,SKC,0.01,VWS V13.00,2013-05-24 01:03:00,
2013-05-23 20:08:00,73.1,61.1,29.93,NW,315,5.0,6.0,66,0.00,,SKC,0.01,VWS V13.00,2013-05-24 01:08:00,
2013-05-23 20:13:00,73.0,61.0,29.94,NW,322,5.0,6.0,66,0.00,,SKC,0.01,VWS V13.00,2013-05-24 01:13:00,
2013-05-23 20:18:00,73.0,61.0,29.93,NW,319,5.0,7.0,66,0.00,,SKC,0.01,VWS V13.00,2013-05-24 01:18:00,
2013-05-23 20:23:00,72.8,61.2,29.93,NW,312,3.0,7.0,67,0.00,,SKC,0.01,VWS V13.00,2013-05-24 01:23:00,
2013-05-23 20:28:00,72.8,60.4,29.94,NW,313,3.0,10.0,65,0.00,,SKC,0.01,VWS V13.00,2013-05-24 01:28:00,
2013-05-23 20:33:00,72.8,60.8,29.94,NW,325,5.0,6.0,66,0.00,,SKC,0.01,VWS V13.00,2013-05-24 01:33:00,
2013-05-23 20:38:00,72.6,60.2,29.94,NW,313,5.0,7.0,65,0.00,,SKC,0.01,VWS V13.00,2013-05-24 01:38:00,
2013-05-23 20:43:00,72.6,60.2,29.94,NW,304,4.0,7.0,65,0.00,,SKC,0.01,VWS V13.00,2013-05-24 01:43:00,
2013-05-23 20:48:00,72.4,60.0,29.94,NW,319,5.0,8.0,65,0.00,,SKC,0.01,VWS V13.00,2013-05-24 01:48:00,
2013-05-23 20:53:00,72.2,59.8,29.95,NNW,345,4.0,9.0,65,0.00,,SKC,0.01,VWS V13.00,2013-05-24 01:53:00,
2013-05-23 20:58:00,72.0,60.0,29.95,NW,317,4.0,9.0,66,0.00,,SKC,0.01,VWS V13.00,2013-05-24 01:58:00,
2013-05-23 21:03:00,71.8,59.4,29.95,NNW,333,2.0,4.0,65,0.00,,SKC,0.01,VWS V13.00,2013-05-24 02:03:00,
2013-05-23 21:08:00,71.7,59.3,29.95,NNW,342,5.0,9.0,65,0.00,,SKC,0.01,VWS V13.00,2013-05-24 02:08:00,
2013-05-23 21:13:00,71.6,58.8,29.95,NNW,327,6.0,10.0,64,0.00,,SKC,0.01,VWS V13.00,2013-05-24 02:13:00,
2013-05-23 21:18:00,71.3,58.5,29.95,NW,310,3.0,10.0,64,0.00,,SKC,0.01,VWS V13.00,2013-05-24 02:18:00,
2013-05-23 21:23:00,71.2,58.8,29.96,North,355,1.0,10.0,65,0.00,,SKC,0.01,VWS V13.00,2013-05-24 02:23:00,
2013-05-23 21:28:00,71.0,58.7,29.96,NNW,331,4.0,10.0,65,0.00,,SKC,0.01,VWS V13.00,2013-05-24 02:28:00,
2013-05-23 21:33:00,70.8,58.5,29.96,NNW,347,3.0,5.0,65,0.00,,SKC,0.01,VWS V13.00,2013-05-24 02:33:00,
2013-05-23 21:38:00,70.5,58.2,29.96,NNE,13,7.0,7.0,65,0.00,,SKC,0.01,VWS V13.00,2013-05-24 02:38:00,
2013-05-23 21:43:00,70.3,58.0,29.96,North,355,2.0,8.0,65,0.00,,SKC,0.01,VWS V13.00,2013-05-24 02:43:00,
2013-05-23 21:48:00,70.1,58.2,29.97,North,355,5.0,8.0,66,0.00,,SKC,0.01,VWS V13.00,2013-05-24 02:48:00,
2013-05-23 21:53:00,69.8,58.4,29.97,NNW,340,2.0,8.0,67,0.00,,SKC,0.01,VWS V13.00,2013-05-24 02:53:00,
2013-05-23 21:58:00,69.6,58.2,29.97,NNW,338,1.0,8.0,67,0.00,,SKC,0.01,VWS V13.00,2013-05-24 02:58:00,
2013-05-23 22:03:00,69.3,58.3,29.97,NNW,331,2.0,5.0,68,0.00,,SKC,0.01,VWS V13.00,2013-05-24 03:03:00,
2013-05-23 22:08:00,69.1,58.1,29.97,NW,313,1.0,5.0,68,0.00,,SKC,0.01,VWS V13.00,2013-05-24 03:08:00,
2013-05-23 22:13:00,69.0,58.4,29.97,North,360,2.0,6.0,69,0.00,,SKC,0.01,VWS V13.00,2013-05-24 03:13:00,
2013-05-23 22:18:00,68.8,58.2,29.97,NW,315,2.0,6.0,69,0.00,,SKC,0.01,VWS V13.00,2013-05-24 03:18:00,
2013-05-23 22:23:00,68.6,58.0,29.98,NW,313,2.0,6.0,69,0.00,,SKC,0.01,VWS V13.00,2013-05-24 03:23:00,
2013-05-23 22:28:00,68.5,58.3,29.98,NW,323,3.0,8.0,70,0.00,,SKC,0.01,VWS V13.00,2013-05-24 03:28:00,
2013-05-23 22:33:00,68.4,57.8,29.98,North,355,4.0,7.0,69,0.00,,SKC,0.01,VWS V13.00,2013-05-24 03:33:00,
2013-05-23 22:38:00,68.3,58.2,29.98,NNW,336,2.0,7.0,70,0.00,,SKC,0.01,VWS V13.00,2013-05-24 03:38:00,
2013-05-23 22:43:00,68.1,58.0,29.98,NW,324,2.0,7.0,70,0.00,,SKC,0.01,VWS V13.00,2013-05-24 03:43:00,
2013-05-23 22:48:00,67.9,57.8,29.98,NNW,331,1.0,7.0,70,0.00,,SKC,0.01,VWS V13.00,2013-05-24 03:48:00,
2013-05-23 22:53:00,67.9,57.8,29.99,NW,321,4.0,7.0,70,0.00,,SKC,0.01,VWS V13.00,2013-05-24 03:53:00,
2013-05-23 22:58:00,67.7,58.0,29.99,NW,313,5.0,7.0,71,0.00,,SKC,0.01,VWS V13.00,2013-05-24 03:58:00,
2013-05-23 23:01:00,67.6,57.9,29.99,NW,326,1.0,7.0,71,0.00,,SKC,0.01,VWS V13.00,2013-05-24 04:01:00,
2013-05-23 23:06:00,67.5,57.8,29.99,NW,321,1.0,7.0,71,0.00,,SKC,0.01,VWS V13.00,2013-05-24 04:06:00,
2013-05-23 23:11:00,67.4,57.7,29.99,NW,321,6.0,7.0,71,0.00,,SKC,0.01,VWS V13.00,2013-05-24 04:11:00,
2013-05-23 23:16:00,67.3,58.0,29.99,NNW,327,2.0,7.0,72,0.00,,SKC,0.01,VWS V13.00,2013-05-24 04:16:00,
2013-05-23 23:21:00,67.1,57.8,29.99,North,350,4.0,7.0,72,0.00,,SKC,0.01,VWS V13.00,2013-05-24 04:21:00,
2013-05-23 23:26:00,66.8,57.9,29.99,North,355,0.0,7.0,73,0.00,,SKC,0.01,VWS V13.00,2013-05-24 04:26:00,
2013-05-23 23:31:00,66.6,57.7,30.00,North,5,0.0,7.0,73,0.00,,SKC,0.01,VWS V13.00,2013-05-24 04:31:00,
2013-05-23 23:36:00,66.3,57.8,30.00,North,11,0.0,4.0,74,0.00,,SKC,0.01,VWS V13.00,2013-05-24 04:36:00,
2013-05-23 23:41:00,66.0,57.9,30.00,NNE,23,0.0,4.0,75,0.00,,SKC,0.01,VWS V13.00,2013-05-24 04:41:00,
2013-05-23 23:46:00,65.7,57.6,30.00,North,360,5.0,6.0,75,0.00,,SKC,0.01,VWS V13.00,2013-05-24 04:46:00,
2013-05-23 23:51:00,65.6,57.8,30.01,North,360,0.0,6.0,76,0.00,,SKC,0.01,VWS V13.00,2013-05-24 04:51:00,
2013-05-23 23:56:00,65.4,57.7,30.01,NNE,13,1.0,6.0,76,0.00,,SKC,0.01,VWS V13.00,2013-05-24 04:56:00,